sensor_id;sensor_type;location;lat;lon;timestamp;P1;durP1;ratioP1;P2;durP2;ratioP2
30948;SDS011;17637;51.984;21.208;2023-02-14T00:00:41;13.63;;;8.65;;
30948;SDS011;17637;51.984;21.208;2023-02-14T00:03:13;14.30;;;8.98;;
30948;SDS011;17637;51.984;21.208;2023-02-14T00:05:46;16.17;;;8.98;;
30948;SDS011;17637;51.984;21.208;2023-02-14T00:08:18;14.32;;;9.82;;
30948;SDS011;17637;51.984;21.208;2023-02-14T00:10:50;15.88;;;9.10;;
30948;SDS011;17637;51.984;21.208;2023-02-14T00:13:22;14.52;;;10.07;;
30948;SDS011;17637;51.984;21.208;2023-02-14T00:15:55;21.40;;;11.00;;
30948;SDS011;17637;51.984;21.208;2023-02-14T00:18:28;14.73;;;9.80;;
30948;SDS011;17637;51.984;21.208;2023-02-14T00:21:18;18.83;;;10.95;;
30948;SDS011;17637;51.984;21.208;2023-02-14T00:23:50;15.20;;;9.13;;
30948;SDS011;17637;51.984;21.208;2023-02-14T00:26:22;15.70;;;10.65;;
30948;SDS011;17637;51.984;21.208;2023-02-14T00:28:54;15.48;;;9.95;;
30948;SDS011;17637;51.984;21.208;2023-02-14T00:31:26;14.15;;;10.13;;
30948;SDS011;17637;51.984;21.208;2023-02-14T00:33:58;16.02;;;9.82;;
30948;SDS011;17637;51.984;21.208;2023-02-14T00:36:30;18.05;;;10.35;;
30948;SDS011;17637;51.984;21.208;2023-02-14T00:39:03;17.33;;;9.65;;
30948;SDS011;17637;51.984;21.208;2023-02-14T00:41:37;14.23;;;9.70;;
30948;SDS011;17637;51.984;21.208;2023-02-14T00:44:09;16.63;;;10.52;;
30948;SDS011;17637;51.984;21.208;2023-02-14T00:46:42;15.85;;;10.70;;
30948;SDS011;17637;51.984;21.208;2023-02-14T00:49:14;13.75;;;9.60;;
30948;SDS011;17637;51.984;21.208;2023-02-14T00:51:46;14.80;;;8.93;;
30948;SDS011;17637;51.984;21.208;2023-02-14T00:54:18;14.05;;;9.07;;
30948;SDS011;17637;51.984;21.208;2023-02-14T00:56:50;15.75;;;9.32;;
30948;SDS011;17637;51.984;21.208;2023-02-14T00:59:22;12.13;;;8.77;;
30948;SDS011;17637;51.984;21.208;2023-02-14T01:01:54;14.13;;;8.52;;
30948;SDS011;17637;51.984;21.208;2023-02-14T01:04:26;15.70;;;9.85;;
30948;SDS011;17637;51.984;21.208;2023-02-14T01:06:58;15.13;;;9.00;;
30948;SDS011;17637;51.984;21.208;2023-02-14T01:09:30;14.52;;;9.18;;
30948;SDS011;17637;51.984;21.208;2023-02-14T01:12:02;15.25;;;8.32;;
30948;SDS011;17637;51.984;21.208;2023-02-14T01:14:34;16.55;;;8.68;;
30948;SDS011;17637;51.984;21.208;2023-02-14T01:17:06;13.30;;;8.65;;
30948;SDS011;17637;51.984;21.208;2023-02-14T01:19:38;15.35;;;9.05;;
30948;SDS011;17637;51.984;21.208;2023-02-14T01:22:12;13.27;;;8.68;;
30948;SDS011;17637;51.984;21.208;2023-02-14T01:24:44;12.35;;;9.07;;
30948;SDS011;17637;51.984;21.208;2023-02-14T01:27:16;10.45;;;6.55;;
30948;SDS011;17637;51.984;21.208;2023-02-14T01:29:49;12.63;;;8.50;;
30948;SDS011;17637;51.984;21.208;2023-02-14T01:32:21;16.30;;;8.98;;
30948;SDS011;17637;51.984;21.208;2023-02-14T01:34:53;14.50;;;8.10;;
30948;SDS011;17637;51.984;21.208;2023-02-14T01:37:25;12.52;;;8.45;;
30948;SDS011;17637;51.984;21.208;2023-02-14T01:39:57;13.20;;;8.15;;
30948;SDS011;17637;51.984;21.208;2023-02-14T01:42:29;15.73;;;9.07;;
30948;SDS011;17637;51.984;21.208;2023-02-14T01:45:05;18.20;;;10.43;;
30948;SDS011;17637;51.984;21.208;2023-02-14T01:47:45;17.08;;;10.13;;
30948;SDS011;17637;51.984;21.208;2023-02-14T01:50:27;15.85;;;10.65;;
30948;SDS011;17637;51.984;21.208;2023-02-14T01:53:03;15.68;;;9.90;;
30948;SDS011;17637;51.984;21.208;2023-02-14T01:55:40;15.98;;;9.38;;
30948;SDS011;17637;51.984;21.208;2023-02-14T01:58:16;19.23;;;9.80;;
30948;SDS011;17637;51.984;21.208;2023-02-14T02:00:55;12.20;;;8.18;;
30948;SDS011;17637;51.984;21.208;2023-02-14T02:03:33;20.33;;;8.18;;
30948;SDS011;17637;51.984;21.208;2023-02-14T02:06:16;15.95;;;9.35;;
30948;SDS011;17637;51.984;21.208;2023-02-14T02:12:02;16.67;;;10.15;;
30948;SDS011;17637;51.984;21.208;2023-02-14T02:14:34;14.60;;;9.38;;
30948;SDS011;17637;51.984;21.208;2023-02-14T02:47:41;16.47;;;10.57;;
30948;SDS011;17637;51.984;21.208;2023-02-14T02:53:45;14.50;;;10.73;;
30948;SDS011;17637;51.984;21.208;2023-02-14T02:56:26;19.58;;;9.52;;
30948;SDS011;17637;51.984;21.208;2023-02-14T02:59:32;20.50;;;11.18;;
30948;SDS011;17637;51.984;21.208;2023-02-14T03:02:09;19.33;;;11.63;;
30948;SDS011;17637;51.984;21.208;2023-02-14T03:04:44;22.90;;;12.18;;
30948;SDS011;17637;51.984;21.208;2023-02-14T03:29:16;22.20;;;14.70;;
30948;SDS011;17637;51.984;21.208;2023-02-14T03:35:16;22.13;;;12.68;;
30948;SDS011;17637;51.984;21.208;2023-02-14T03:38:06;22.30;;;13.15;;
30948;SDS011;17637;51.984;21.208;2023-02-14T03:40:59;21.98;;;12.57;;
30948;SDS011;17637;51.984;21.208;2023-02-14T03:43:36;23.10;;;13.90;;
30948;SDS011;17637;51.984;21.208;2023-02-14T03:46:35;19.63;;;11.93;;
30948;SDS011;17637;51.984;21.208;2023-02-14T03:49:09;23.33;;;14.45;;
30948;SDS011;17637;51.984;21.208;2023-02-14T03:51:46;22.85;;;14.40;;
30948;SDS011;17637;51.984;21.208;2023-02-14T03:54:21;20.63;;;12.65;;
30948;SDS011;17637;51.984;21.208;2023-02-14T03:56:59;19.75;;;14.15;;
30948;SDS011;17637;51.984;21.208;2023-02-14T03:59:58;24.30;;;14.15;;
30948;SDS011;17637;51.984;21.208;2023-02-14T04:02:34;20.15;;;13.38;;
30948;SDS011;17637;51.984;21.208;2023-02-14T04:05:14;24.80;;;14.18;;
30948;SDS011;17637;51.984;21.208;2023-02-14T04:07:53;25.52;;;14.52;;
30948;SDS011;17637;51.984;21.208;2023-02-14T04:10:27;22.77;;;13.98;;
30948;SDS011;17637;51.984;21.208;2023-02-14T04:12:59;21.58;;;13.43;;
30948;SDS011;17637;51.984;21.208;2023-02-14T04:15:31;18.38;;;11.90;;
30948;SDS011;17637;51.984;21.208;2023-02-14T04:18:03;22.85;;;14.23;;
30948;SDS011;17637;51.984;21.208;2023-02-14T04:23:26;24.90;;;13.43;;
30948;SDS011;17637;51.984;21.208;2023-02-14T04:25:58;25.73;;;13.63;;
30948;SDS011;17637;51.984;21.208;2023-02-14T04:28:30;27.38;;;14.38;;
30948;SDS011;17637;51.984;21.208;2023-02-14T04:31:03;22.20;;;14.68;;
30948;SDS011;17637;51.984;21.208;2023-02-14T04:33:37;23.60;;;14.35;;
30948;SDS011;17637;51.984;21.208;2023-02-14T04:36:10;25.52;;;14.50;;
30948;SDS011;17637;51.984;21.208;2023-02-14T04:38:42;22.10;;;13.13;;
30948;SDS011;17637;51.984;21.208;2023-02-14T04:41:14;20.23;;;12.88;;
30948;SDS011;17637;51.984;21.208;2023-02-14T04:43:46;22.50;;;13.43;;
30948;SDS011;17637;51.984;21.208;2023-02-14T04:46:18;20.20;;;12.63;;
30948;SDS011;17637;51.984;21.208;2023-02-14T04:48:49;24.27;;;14.70;;
30948;SDS011;17637;51.984;21.208;2023-02-14T04:51:21;25.27;;;13.90;;
30948;SDS011;17637;51.984;21.208;2023-02-14T04:53:53;19.90;;;12.95;;
30948;SDS011;17637;51.984;21.208;2023-02-14T04:56:25;19.63;;;13.40;;
30948;SDS011;17637;51.984;21.208;2023-02-14T04:58:57;24.60;;;13.85;;
30948;SDS011;17637;51.984;21.208;2023-02-14T05:01:29;20.60;;;13.77;;
30948;SDS011;17637;51.984;21.208;2023-02-14T05:04:01;27.98;;;15.85;;
30948;SDS011;17637;51.984;21.208;2023-02-14T05:06:33;22.95;;;14.15;;
30948;SDS011;17637;51.984;21.208;2023-02-14T05:09:06;26.67;;;16.02;;
30948;SDS011;17637;51.984;21.208;2023-02-14T05:11:38;20.20;;;12.65;;
30948;SDS011;17637;51.984;21.208;2023-02-14T05:14:10;26.40;;;14.32;;
30948;SDS011;17637;51.984;21.208;2023-02-14T05:16:42;23.88;;;14.55;;
30948;SDS011;17637;51.984;21.208;2023-02-14T05:19:14;26.90;;;14.23;;
30948;SDS011;17637;51.984;21.208;2023-02-14T05:21:46;25.63;;;16.02;;
30948;SDS011;17637;51.984;21.208;2023-02-14T05:24:18;27.98;;;16.45;;
30948;SDS011;17637;51.984;21.208;2023-02-14T05:26:50;27.55;;;17.67;;
30948;SDS011;17637;51.984;21.208;2023-02-14T05:29:22;29.13;;;15.10;;
30948;SDS011;17637;51.984;21.208;2023-02-14T05:31:55;29.17;;;16.35;;
30948;SDS011;17637;51.984;21.208;2023-02-14T05:34:27;23.48;;;15.60;;
30948;SDS011;17637;51.984;21.208;2023-02-14T05:36:59;26.45;;;16.88;;
30948;SDS011;17637;51.984;21.208;2023-02-14T05:39:33;24.40;;;15.93;;
30948;SDS011;17637;51.984;21.208;2023-02-14T05:42:05;24.42;;;16.05;;
30948;SDS011;17637;51.984;21.208;2023-02-14T05:44:37;28.08;;;17.42;;
30948;SDS011;17637;51.984;21.208;2023-02-14T05:47:09;32.47;;;17.42;;
30948;SDS011;17637;51.984;21.208;2023-02-14T05:49:43;27.33;;;17.77;;
30948;SDS011;17637;51.984;21.208;2023-02-14T05:52:15;27.83;;;16.42;;
30948;SDS011;17637;51.984;21.208;2023-02-14T05:54:47;30.45;;;17.92;;
30948;SDS011;17637;51.984;21.208;2023-02-14T05:57:19;28.38;;;17.58;;
30948;SDS011;17637;51.984;21.208;2023-02-14T05:59:51;25.80;;;16.58;;
30948;SDS011;17637;51.984;21.208;2023-02-14T06:02:23;25.73;;;15.32;;
30948;SDS011;17637;51.984;21.208;2023-02-14T06:04:56;24.65;;;14.90;;
30948;SDS011;17637;51.984;21.208;2023-02-14T06:07:27;29.05;;;16.17;;
30948;SDS011;17637;51.984;21.208;2023-02-14T06:09:59;26.92;;;16.65;;
30948;SDS011;17637;51.984;21.208;2023-02-14T06:12:32;27.15;;;16.65;;
30948;SDS011;17637;51.984;21.208;2023-02-14T06:15:04;25.52;;;17.88;;
30948;SDS011;17637;51.984;21.208;2023-02-14T06:17:36;26.73;;;16.88;;
30948;SDS011;17637;51.984;21.208;2023-02-14T06:20:08;29.30;;;16.40;;
30948;SDS011;17637;51.984;21.208;2023-02-14T06:22:41;27.15;;;16.85;;
30948;SDS011;17637;51.984;21.208;2023-02-14T06:25:13;27.83;;;15.95;;
30948;SDS011;17637;51.984;21.208;2023-02-14T06:27:45;24.08;;;16.23;;
30948;SDS011;17637;51.984;21.208;2023-02-14T06:30:19;24.83;;;15.32;;
30948;SDS011;17637;51.984;21.208;2023-02-14T06:32:51;25.38;;;15.77;;
30948;SDS011;17637;51.984;21.208;2023-02-14T06:35:23;27.17;;;16.05;;
30948;SDS011;17637;51.984;21.208;2023-02-14T06:37:55;28.85;;;16.52;;
30948;SDS011;17637;51.984;21.208;2023-02-14T06:40:27;24.20;;;15.50;;
30948;SDS011;17637;51.984;21.208;2023-02-14T06:43:00;26.15;;;14.88;;
30948;SDS011;17637;51.984;21.208;2023-02-14T06:45:32;25.30;;;14.05;;
30948;SDS011;17637;51.984;21.208;2023-02-14T06:48:04;28.90;;;14.75;;
30948;SDS011;17637;51.984;21.208;2023-02-14T06:50:36;22.98;;;14.52;;
30948;SDS011;17637;51.984;21.208;2023-02-14T06:53:11;23.73;;;16.20;;
30948;SDS011;17637;51.984;21.208;2023-02-14T06:55:43;27.50;;;14.90;;
30948;SDS011;17637;51.984;21.208;2023-02-14T06:58:15;27.42;;;17.63;;
30948;SDS011;17637;51.984;21.208;2023-02-14T07:00:47;40.20;;;22.00;;
30948;SDS011;17637;51.984;21.208;2023-02-14T07:03:19;22.33;;;15.23;;
30948;SDS011;17637;51.984;21.208;2023-02-14T07:05:51;25.48;;;15.73;;
30948;SDS011;17637;51.984;21.208;2023-02-14T07:08:24;38.80;;;22.40;;
30948;SDS011;17637;51.984;21.208;2023-02-14T07:10:56;36.67;;;24.35;;
30948;SDS011;17637;51.984;21.208;2023-02-14T07:13:29;29.00;;;17.85;;
30948;SDS011;17637;51.984;21.208;2023-02-14T07:16:02;29.58;;;19.42;;
30948;SDS011;17637;51.984;21.208;2023-02-14T07:18:34;27.38;;;17.42;;
30948;SDS011;17637;51.984;21.208;2023-02-14T07:21:06;26.70;;;18.02;;
30948;SDS011;17637;51.984;21.208;2023-02-14T07:23:38;33.83;;;19.95;;
30948;SDS011;17637;51.984;21.208;2023-02-14T07:26:10;25.52;;;18.25;;
30948;SDS011;17637;51.984;21.208;2023-02-14T07:28:43;27.73;;;18.02;;
30948;SDS011;17637;51.984;21.208;2023-02-14T07:31:16;27.80;;;19.38;;
30948;SDS011;17637;51.984;21.208;2023-02-14T07:33:50;22.70;;;16.48;;
30948;SDS011;17637;51.984;21.208;2023-02-14T07:36:22;32.60;;;22.35;;
30948;SDS011;17637;51.984;21.208;2023-02-14T07:38:55;33.40;;;20.70;;
30948;SDS011;17637;51.984;21.208;2023-02-14T07:41:27;32.60;;;21.35;;
30948;SDS011;17637;51.984;21.208;2023-02-14T07:44:00;35.72;;;22.55;;
30948;SDS011;17637;51.984;21.208;2023-02-14T07:46:32;37.00;;;21.58;;
30948;SDS011;17637;51.984;21.208;2023-02-14T07:49:04;32.00;;;21.42;;
30948;SDS011;17637;51.984;21.208;2023-02-14T07:51:36;36.75;;;21.85;;
30948;SDS011;17637;51.984;21.208;2023-02-14T07:54:08;36.05;;;23.65;;
30948;SDS011;17637;51.984;21.208;2023-02-14T07:56:40;37.17;;;21.45;;
30948;SDS011;17637;51.984;21.208;2023-02-14T07:59:12;33.00;;;21.40;;
30948;SDS011;17637;51.984;21.208;2023-02-14T08:01:44;28.48;;;20.77;;
30948;SDS011;17637;51.984;21.208;2023-02-14T08:04:16;32.85;;;21.52;;
30948;SDS011;17637;51.984;21.208;2023-02-14T08:06:48;35.92;;;21.73;;
30948;SDS011;17637;51.984;21.208;2023-02-14T08:09:20;35.45;;;21.73;;
30948;SDS011;17637;51.984;21.208;2023-02-14T08:11:56;39.10;;;24.67;;
30948;SDS011;17637;51.984;21.208;2023-02-14T08:14:47;38.20;;;20.60;;
30948;SDS011;17637;51.984;21.208;2023-02-14T08:17:19;36.97;;;20.58;;
30948;SDS011;17637;51.984;21.208;2023-02-14T08:19:51;42.13;;;26.23;;
30948;SDS011;17637;51.984;21.208;2023-02-14T08:22:23;37.05;;;23.42;;
30948;SDS011;17637;51.984;21.208;2023-02-14T08:24:55;36.95;;;23.88;;
30948;SDS011;17637;51.984;21.208;2023-02-14T08:27:27;38.05;;;24.25;;
30948;SDS011;17637;51.984;21.208;2023-02-14T08:29:59;39.00;;;25.80;;
30948;SDS011;17637;51.984;21.208;2023-02-14T08:32:31;33.50;;;22.75;;
30948;SDS011;17637;51.984;21.208;2023-02-14T08:35:03;36.15;;;23.70;;
30948;SDS011;17637;51.984;21.208;2023-02-14T08:37:35;38.28;;;25.05;;
30948;SDS011;17637;51.984;21.208;2023-02-14T08:40:07;41.00;;;25.00;;
30948;SDS011;17637;51.984;21.208;2023-02-14T08:42:40;38.92;;;24.55;;
30948;SDS011;17637;51.984;21.208;2023-02-14T08:45:12;35.47;;;24.98;;
30948;SDS011;17637;51.984;21.208;2023-02-14T08:47:44;36.63;;;22.70;;
30948;SDS011;17637;51.984;21.208;2023-02-14T08:50:17;36.83;;;23.52;;
30948;SDS011;17637;51.984;21.208;2023-02-14T08:52:49;35.67;;;24.70;;
30948;SDS011;17637;51.984;21.208;2023-02-14T08:55:21;41.88;;;28.63;;
30948;SDS011;17637;51.984;21.208;2023-02-14T08:57:54;37.10;;;26.20;;
30948;SDS011;17637;51.984;21.208;2023-02-14T09:00:27;46.80;;;28.35;;
30948;SDS011;17637;51.984;21.208;2023-02-14T09:03:00;33.28;;;23.45;;
30948;SDS011;17637;51.984;21.208;2023-02-14T09:05:32;39.88;;;24.30;;
30948;SDS011;17637;51.984;21.208;2023-02-14T09:08:05;45.05;;;28.38;;
30948;SDS011;17637;51.984;21.208;2023-02-14T09:10:38;35.40;;;21.98;;
30948;SDS011;17637;51.984;21.208;2023-02-14T09:13:10;35.33;;;21.90;;
30948;SDS011;17637;51.984;21.208;2023-02-14T09:15:42;30.63;;;21.88;;
30948;SDS011;17637;51.984;21.208;2023-02-14T09:18:14;32.85;;;21.83;;
30948;SDS011;17637;51.984;21.208;2023-02-14T09:20:47;34.10;;;22.05;;
30948;SDS011;17637;51.984;21.208;2023-02-14T09:23:19;27.27;;;20.38;;
30948;SDS011;17637;51.984;21.208;2023-02-14T09:25:51;30.08;;;20.67;;
30948;SDS011;17637;51.984;21.208;2023-02-14T09:28:30;35.03;;;20.75;;
30948;SDS011;17637;51.984;21.208;2023-02-14T09:31:12;38.15;;;25.75;;
30948;SDS011;17637;51.984;21.208;2023-02-14T09:33:49;38.17;;;24.63;;
30948;SDS011;17637;51.984;21.208;2023-02-14T09:36:41;41.58;;;24.27;;
30948;SDS011;17637;51.984;21.208;2023-02-14T09:39:13;36.13;;;24.98;;
30948;SDS011;17637;51.984;21.208;2023-02-14T09:44:50;32.03;;;23.55;;
30948;SDS011;17637;51.984;21.208;2023-02-14T09:53:31;38.30;;;22.92;;
30948;SDS011;17637;51.984;21.208;2023-02-14T09:58:50;31.50;;;22.27;;
30948;SDS011;17637;51.984;21.208;2023-02-14T10:01:42;32.25;;;20.05;;
30948;SDS011;17637;51.984;21.208;2023-02-14T10:04:39;52.47;;;30.98;;
30948;SDS011;17637;51.984;21.208;2023-02-14T10:07:26;58.17;;;27.73;;
30948;SDS011;17637;51.984;21.208;2023-02-14T10:12:53;41.90;;;26.05;;
30948;SDS011;17637;51.984;21.208;2023-02-14T10:15:33;38.72;;;25.70;;
30948;SDS011;17637;51.984;21.208;2023-02-14T10:21:36;31.23;;;22.42;;
30948;SDS011;17637;51.984;21.208;2023-02-14T10:24:30;31.10;;;22.17;;
30948;SDS011;17637;51.984;21.208;2023-02-14T10:27:11;29.50;;;20.20;;
30948;SDS011;17637;51.984;21.208;2023-02-14T10:29:47;35.33;;;19.45;;
30948;SDS011;17637;51.984;21.208;2023-02-14T10:32:22;27.52;;;18.55;;
30948;SDS011;17637;51.984;21.208;2023-02-14T10:52:07;34.83;;;20.33;;
30948;SDS011;17637;51.984;21.208;2023-02-14T10:55:26;36.20;;;23.75;;
30948;SDS011;17637;51.984;21.208;2023-02-14T10:58:15;39.65;;;25.88;;
30948;SDS011;17637;51.984;21.208;2023-02-14T11:00:52;42.78;;;29.08;;
30948;SDS011;17637;51.984;21.208;2023-02-14T11:03:30;38.47;;;26.90;;
30948;SDS011;17637;51.984;21.208;2023-02-14T11:06:06;37.05;;;22.90;;
30948;SDS011;17637;51.984;21.208;2023-02-14T11:08:40;39.00;;;26.00;;
30948;SDS011;17637;51.984;21.208;2023-02-14T11:11:19;40.47;;;26.10;;
30948;SDS011;17637;51.984;21.208;2023-02-14T11:13:57;48.97;;;27.10;;
30948;SDS011;17637;51.984;21.208;2023-02-14T11:16:31;40.00;;;23.60;;
30948;SDS011;17637;51.984;21.208;2023-02-14T11:21:47;30.02;;;21.15;;
30948;SDS011;17637;51.984;21.208;2023-02-14T11:24:25;34.22;;;21.50;;
30948;SDS011;17637;51.984;21.208;2023-02-14T11:29:43;29.30;;;20.35;;
30948;SDS011;17637;51.984;21.208;2023-02-14T11:32:26;34.08;;;20.52;;
30948;SDS011;17637;51.984;21.208;2023-02-14T11:35:02;29.35;;;20.30;;
30948;SDS011;17637;51.984;21.208;2023-02-14T11:37:52;32.60;;;21.67;;
30948;SDS011;17637;51.984;21.208;2023-02-14T11:40:30;31.85;;;21.73;;
30948;SDS011;17637;51.984;21.208;2023-02-14T11:45:46;36.03;;;22.20;;
30948;SDS011;17637;51.984;21.208;2023-02-14T11:48:21;35.50;;;22.13;;
30948;SDS011;17637;51.984;21.208;2023-02-14T11:51:09;34.28;;;22.48;;
30948;SDS011;17637;51.984;21.208;2023-02-14T11:53:45;36.10;;;22.30;;
30948;SDS011;17637;51.984;21.208;2023-02-14T11:56:22;33.83;;;22.38;;
30948;SDS011;17637;51.984;21.208;2023-02-14T12:01:29;38.25;;;24.75;;
30948;SDS011;17637;51.984;21.208;2023-02-14T12:04:12;41.35;;;22.20;;
30948;SDS011;17637;51.984;21.208;2023-02-14T12:06:48;33.33;;;22.25;;
30948;SDS011;17637;51.984;21.208;2023-02-14T12:11:53;30.92;;;19.90;;
30948;SDS011;17637;51.984;21.208;2023-02-14T12:14:30;30.73;;;19.58;;
30948;SDS011;17637;51.984;21.208;2023-02-14T12:19:47;32.95;;;22.35;;
30948;SDS011;17637;51.984;21.208;2023-02-14T12:22:25;35.57;;;23.63;;
30948;SDS011;17637;51.984;21.208;2023-02-14T12:25:13;43.30;;;26.95;;
30948;SDS011;17637;51.984;21.208;2023-02-14T12:30:27;37.55;;;24.70;;
30948;SDS011;17637;51.984;21.208;2023-02-14T12:33:02;45.72;;;28.35;;
30948;SDS011;17637;51.984;21.208;2023-02-14T12:58:56;34.72;;;21.35;;
30948;SDS011;17637;51.984;21.208;2023-02-14T13:04:43;33.40;;;21.90;;
30948;SDS011;17637;51.984;21.208;2023-02-14T13:10:12;43.22;;;27.80;;
30948;SDS011;17637;51.984;21.208;2023-02-14T13:12:56;40.55;;;26.17;;
30948;SDS011;17637;51.984;21.208;2023-02-14T13:15:39;32.70;;;22.63;;
30948;SDS011;17637;51.984;21.208;2023-02-14T13:18:32;35.67;;;23.10;;
30948;SDS011;17637;51.984;21.208;2023-02-14T13:21:07;37.13;;;23.30;;
30948;SDS011;17637;51.984;21.208;2023-02-14T13:23:43;34.83;;;23.70;;
30948;SDS011;17637;51.984;21.208;2023-02-14T13:26:19;33.10;;;21.17;;
30948;SDS011;17637;51.984;21.208;2023-02-14T13:29:06;38.35;;;25.38;;
30948;SDS011;17637;51.984;21.208;2023-02-14T13:31:44;35.85;;;23.75;;
30948;SDS011;17637;51.984;21.208;2023-02-14T13:34:26;42.28;;;27.30;;
30948;SDS011;17637;51.984;21.208;2023-02-14T13:37:18;37.85;;;25.75;;
30948;SDS011;17637;51.984;21.208;2023-02-14T13:39:54;35.65;;;24.45;;
30948;SDS011;17637;51.984;21.208;2023-02-14T13:48:14;37.13;;;24.70;;
30948;SDS011;17637;51.984;21.208;2023-02-14T13:53:39;40.95;;;27.25;;
30948;SDS011;17637;51.984;21.208;2023-02-14T13:58:55;44.70;;;28.63;;
30948;SDS011;17637;51.984;21.208;2023-02-14T14:07:32;40.30;;;25.58;;
30948;SDS011;17637;51.984;21.208;2023-02-14T14:10:04;42.63;;;29.77;;
30948;SDS011;17637;51.984;21.208;2023-02-14T14:12:37;38.40;;;21.95;;
30948;SDS011;17637;51.984;21.208;2023-02-14T14:15:14;44.47;;;27.77;;
30948;SDS011;17637;51.984;21.208;2023-02-14T14:17:48;39.95;;;25.33;;
30948;SDS011;17637;51.984;21.208;2023-02-14T14:20:44;36.42;;;28.10;;
30948;SDS011;17637;51.984;21.208;2023-02-14T14:23:29;43.03;;;30.70;;
30948;SDS011;17637;51.984;21.208;2023-02-14T14:26:18;39.45;;;27.95;;
30948;SDS011;17637;51.984;21.208;2023-02-14T14:29:29;35.95;;;23.13;;
30948;SDS011;17637;51.984;21.208;2023-02-14T14:35:14;35.50;;;25.60;;
30948;SDS011;17637;51.984;21.208;2023-02-14T14:37:51;45.35;;;30.55;;
30948;SDS011;17637;51.984;21.208;2023-02-14T14:40:28;43.10;;;28.88;;
30948;SDS011;17637;51.984;21.208;2023-02-14T14:45:46;47.63;;;28.98;;
30948;SDS011;17637;51.984;21.208;2023-02-14T14:48:43;53.67;;;35.28;;
30948;SDS011;17637;51.984;21.208;2023-02-14T14:51:26;56.83;;;36.00;;
30948;SDS011;17637;51.984;21.208;2023-02-14T14:54:01;45.90;;;30.95;;
30948;SDS011;17637;51.984;21.208;2023-02-14T14:56:37;34.28;;;24.92;;
30948;SDS011;17637;51.984;21.208;2023-02-14T15:01:53;46.97;;;30.02;;
30948;SDS011;17637;51.984;21.208;2023-02-14T15:04:27;46.45;;;32.90;;
30948;SDS011;17637;51.984;21.208;2023-02-14T15:07:18;42.67;;;28.52;;
30948;SDS011;17637;51.984;21.208;2023-02-14T15:09:58;45.72;;;27.73;;
30948;SDS011;17637;51.984;21.208;2023-02-14T15:12:31;62.28;;;41.63;;
30948;SDS011;17637;51.984;21.208;2023-02-14T15:17:54;47.05;;;33.63;;
30948;SDS011;17637;51.984;21.208;2023-02-14T15:20:26;50.58;;;37.45;;
30948;SDS011;17637;51.984;21.208;2023-02-14T15:22:58;47.90;;;32.58;;
30948;SDS011;17637;51.984;21.208;2023-02-14T15:25:32;51.67;;;35.33;;
30948;SDS011;17637;51.984;21.208;2023-02-14T15:28:10;48.67;;;35.63;;
30948;SDS011;17637;51.984;21.208;2023-02-14T15:30:47;47.78;;;35.55;;
30948;SDS011;17637;51.984;21.208;2023-02-14T15:33:27;45.03;;;32.50;;
30948;SDS011;17637;51.984;21.208;2023-02-14T15:36:02;47.83;;;34.30;;
30948;SDS011;17637;51.984;21.208;2023-02-14T15:38:38;52.20;;;38.20;;
30948;SDS011;17637;51.984;21.208;2023-02-14T15:41:12;46.72;;;32.72;;
30948;SDS011;17637;51.984;21.208;2023-02-14T15:43:50;58.40;;;41.65;;
30948;SDS011;17637;51.984;21.208;2023-02-14T15:46:33;51.15;;;37.50;;
30948;SDS011;17637;51.984;21.208;2023-02-14T15:49:09;65.15;;;45.20;;
30948;SDS011;17637;51.984;21.208;2023-02-14T15:51:46;58.45;;;41.80;;
30948;SDS011;17637;51.984;21.208;2023-02-14T15:57:28;70.65;;;45.40;;
30948;SDS011;17637;51.984;21.208;2023-02-14T16:00:02;65.97;;;39.90;;
30948;SDS011;17637;51.984;21.208;2023-02-14T16:05:17;67.82;;;44.33;;
30948;SDS011;17637;51.984;21.208;2023-02-14T16:07:56;62.95;;;39.30;;
30948;SDS011;17637;51.984;21.208;2023-02-14T16:10:31;64.15;;;40.70;;
30948;SDS011;17637;51.984;21.208;2023-02-14T16:13:05;56.08;;;36.53;;
30948;SDS011;17637;51.984;21.208;2023-02-14T16:15:56;53.40;;;37.13;;
30948;SDS011;17637;51.984;21.208;2023-02-14T16:18:38;49.53;;;32.45;;
30948;SDS011;17637;51.984;21.208;2023-02-14T16:26:42;54.50;;;33.50;;
30948;SDS011;17637;51.984;21.208;2023-02-14T16:29:15;51.40;;;33.33;;
30948;SDS011;17637;51.984;21.208;2023-02-14T16:31:52;53.05;;;34.20;;
30948;SDS011;17637;51.984;21.208;2023-02-14T16:34:45;51.13;;;33.72;;
30948;SDS011;17637;51.984;21.208;2023-02-14T16:37:20;64.68;;;38.17;;
30948;SDS011;17637;51.984;21.208;2023-02-14T16:39:54;62.92;;;42.38;;
30948;SDS011;17637;51.984;21.208;2023-02-14T16:42:30;52.80;;;34.10;;
30948;SDS011;17637;51.984;21.208;2023-02-14T16:45:03;62.88;;;40.75;;
30948;SDS011;17637;51.984;21.208;2023-02-14T16:47:35;69.35;;;47.17;;
30948;SDS011;17637;51.984;21.208;2023-02-14T16:50:07;68.38;;;45.72;;
30948;SDS011;17637;51.984;21.208;2023-02-14T16:52:40;64.50;;;38.78;;
30948;SDS011;17637;51.984;21.208;2023-02-14T16:55:15;76.05;;;44.75;;
30948;SDS011;17637;51.984;21.208;2023-02-14T16:57:50;65.65;;;40.88;;
30948;SDS011;17637;51.984;21.208;2023-02-14T17:00:23;96.70;;;59.25;;
30948;SDS011;17637;51.984;21.208;2023-02-14T17:02:58;63.35;;;39.53;;
30948;SDS011;17637;51.984;21.208;2023-02-14T17:05:41;79.78;;;53.63;;
30948;SDS011;17637;51.984;21.208;2023-02-14T17:08:14;74.50;;;49.83;;
30948;SDS011;17637;51.984;21.208;2023-02-14T17:10:46;80.32;;;50.75;;
30948;SDS011;17637;51.984;21.208;2023-02-14T17:13:20;66.10;;;44.92;;
30948;SDS011;17637;51.984;21.208;2023-02-14T17:15:54;61.92;;;42.67;;
30948;SDS011;17637;51.984;21.208;2023-02-14T17:18:28;56.40;;;40.45;;
30948;SDS011;17637;51.984;21.208;2023-02-14T17:21:02;69.10;;;44.50;;
30948;SDS011;17637;51.984;21.208;2023-02-14T17:23:35;59.00;;;40.10;;
30948;SDS011;17637;51.984;21.208;2023-02-14T17:26:07;60.95;;;42.10;;
30948;SDS011;17637;51.984;21.208;2023-02-14T17:28:41;57.65;;;41.42;;
30948;SDS011;17637;51.984;21.208;2023-02-14T17:31:13;58.67;;;41.30;;
30948;SDS011;17637;51.984;21.208;2023-02-14T17:33:46;71.35;;;48.33;;
30948;SDS011;17637;51.984;21.208;2023-02-14T17:36:19;71.18;;;47.25;;
30948;SDS011;17637;51.984;21.208;2023-02-14T17:38:51;65.45;;;45.17;;
30948;SDS011;17637;51.984;21.208;2023-02-14T17:41:25;70.22;;;51.50;;
30948;SDS011;17637;51.984;21.208;2023-02-14T17:43:57;71.18;;;44.78;;
30948;SDS011;17637;51.984;21.208;2023-02-14T17:46:30;61.45;;;41.08;;
30948;SDS011;17637;51.984;21.208;2023-02-14T17:49:02;61.53;;;42.58;;
30948;SDS011;17637;51.984;21.208;2023-02-14T17:51:34;65.57;;;44.70;;
30948;SDS011;17637;51.984;21.208;2023-02-14T17:54:06;61.03;;;40.40;;
30948;SDS011;17637;51.984;21.208;2023-02-14T17:56:38;70.30;;;46.97;;
30948;SDS011;17637;51.984;21.208;2023-02-14T17:59:10;72.88;;;46.90;;
30948;SDS011;17637;51.984;21.208;2023-02-14T18:01:42;71.07;;;45.42;;
30948;SDS011;17637;51.984;21.208;2023-02-14T18:04:14;77.00;;;51.95;;
30948;SDS011;17637;51.984;21.208;2023-02-14T18:06:46;79.70;;;52.05;;